Terminal Aerodrome Forecast
Issued by NWS

Home | Current Version | Previous Version | Text Only | Print | Product List | Glossary On
Versions: 1 2 3 4 5 6 7 8 9 10 11 12 13
596
FTUS46 KMFR 202339
TAFRBG
TAF
KRBG 202339Z 2100/2124 25005KT P6SM -SHRA VCTS FEW025 BKN035CB
      OVC060
     FM210300 VRB03KT P6SM VCSH FEW020 BKN060
     FM210600 00000KT P6SM SCT015 OVC025
     FM211600 00000KT P6SM SCT015 OVC035=

USA.gov is the U.S. government's official web portal to all federal, state and local government web resources and services.